sensor_id;sensor_type;location;lat;lon;timestamp;P1;durP1;ratioP1;P2;durP2;ratioP2
29026;SDS011;16120;48.608;9.092;2022-11-15T00:00:08;76.47;;;6.20;;
29026;SDS011;16120;48.608;9.092;2022-11-15T00:04:05;76.97;;;7.30;;
29026;SDS011;16120;48.608;9.092;2022-11-15T00:08:00;77.47;;;7.57;;
29026;SDS011;16120;48.608;9.092;2022-11-15T00:11:55;76.17;;;7.50;;
29026;SDS011;16120;48.608;9.092;2022-11-15T00:15:50;78.17;;;7.50;;
29026;SDS011;16120;48.608;9.092;2022-11-15T00:19:47;79.20;;;7.10;;
29026;SDS011;16120;48.608;9.092;2022-11-15T00:23:42;78.63;;;7.13;;
29026;SDS011;16120;48.608;9.092;2022-11-15T00:27:37;77.83;;;7.50;;
29026;SDS011;16120;48.608;9.092;2022-11-15T00:31:33;75.37;;;6.30;;
29026;SDS011;16120;48.608;9.092;2022-11-15T00:35:30;76.27;;;6.50;;
29026;SDS011;16120;48.608;9.092;2022-11-15T00:39:26;76.17;;;6.90;;
29026;SDS011;16120;48.608;9.092;2022-11-15T00:43:21;75.40;;;6.70;;
29026;SDS011;16120;48.608;9.092;2022-11-15T00:47:16;77.10;;;6.50;;
29026;SDS011;16120;48.608;9.092;2022-11-15T00:51:13;75.00;;;6.40;;
29026;SDS011;16120;48.608;9.092;2022-11-15T00:55:08;77.73;;;5.70;;
29026;SDS011;16120;48.608;9.092;2022-11-15T00:59:04;81.07;;;6.53;;
29026;SDS011;16120;48.608;9.092;2022-11-15T01:02:59;74.88;;;5.90;;
29026;SDS011;16120;48.608;9.092;2022-11-15T01:06:56;75.57;;;6.00;;
29026;SDS011;16120;48.608;9.092;2022-11-15T01:10:51;76.30;;;6.10;;
29026;SDS011;16120;48.608;9.092;2022-11-15T01:14:46;75.67;;;5.60;;
29026;SDS011;16120;48.608;9.092;2022-11-15T01:18:42;73.80;;;5.55;;
29026;SDS011;16120;48.608;9.092;2022-11-15T01:22:39;76.67;;;6.20;;
29026;SDS011;16120;48.608;9.092;2022-11-15T01:26:34;78.80;;;5.90;;
29026;SDS011;16120;48.608;9.092;2022-11-15T01:30:29;74.60;;;5.32;;
29026;SDS011;16120;48.608;9.092;2022-11-15T01:34:24;73.88;;;5.25;;
29026;SDS011;16120;48.608;9.092;2022-11-15T01:38:21;75.60;;;6.07;;
29026;SDS011;16120;48.608;9.092;2022-11-15T01:42:16;76.57;;;5.60;;
29026;SDS011;16120;48.608;9.092;2022-11-15T01:46:22;74.67;;;5.80;;
29026;SDS011;16120;48.608;9.092;2022-11-15T01:50:19;76.10;;;5.57;;
29026;SDS011;16120;48.608;9.092;2022-11-15T01:54:17;74.07;;;4.80;;
29026;SDS011;16120;48.608;9.092;2022-11-15T01:58:15;75.37;;;5.23;;
29026;SDS011;16120;48.608;9.092;2022-11-15T02:02:10;73.82;;;5.60;;
29026;SDS011;16120;48.608;9.092;2022-11-15T02:06:06;73.87;;;5.20;;
29026;SDS011;16120;48.608;9.092;2022-11-15T02:10:04;76.10;;;6.00;;
29026;SDS011;16120;48.608;9.092;2022-11-15T02:14:01;73.63;;;5.30;;
29026;SDS011;16120;48.608;9.092;2022-11-15T02:18:06;73.90;;;5.70;;
29026;SDS011;16120;48.608;9.092;2022-11-15T02:22:04;74.80;;;5.50;;
29026;SDS011;16120;48.608;9.092;2022-11-15T02:26:13;76.30;;;5.17;;
29026;SDS011;16120;48.608;9.092;2022-11-15T02:30:23;75.97;;;5.70;;
29026;SDS011;16120;48.608;9.092;2022-11-15T02:34:20;76.00;;;6.00;;
29026;SDS011;16120;48.608;9.092;2022-11-15T02:38:22;76.17;;;6.27;;
29026;SDS011;16120;48.608;9.092;2022-11-15T02:42:21;73.77;;;5.40;;
29026;SDS011;16120;48.608;9.092;2022-11-15T02:46:21;77.30;;;5.67;;
29026;SDS011;16120;48.608;9.092;2022-11-15T02:50:18;78.00;;;6.33;;
29026;SDS011;16120;48.608;9.092;2022-11-15T02:54:15;76.00;;;6.40;;
29026;SDS011;16120;48.608;9.092;2022-11-15T02:58:19;76.47;;;5.97;;
29026;SDS011;16120;48.608;9.092;2022-11-15T03:02:21;76.40;;;6.20;;
29026;SDS011;16120;48.608;9.092;2022-11-15T03:06:20;76.10;;;6.70;;
29026;SDS011;16120;48.608;9.092;2022-11-15T03:10:17;75.90;;;6.43;;
29026;SDS011;16120;48.608;9.092;2022-11-15T03:14:18;77.17;;;7.17;;
29026;SDS011;16120;48.608;9.092;2022-11-15T03:18:18;75.07;;;6.50;;
29026;SDS011;16120;48.608;9.092;2022-11-15T03:22:15;77.90;;;7.10;;
29026;SDS011;16120;48.608;9.092;2022-11-15T03:26:11;75.53;;;6.37;;
29026;SDS011;16120;48.608;9.092;2022-11-15T03:30:09;74.40;;;5.80;;
29026;SDS011;16120;48.608;9.092;2022-11-15T03:34:06;76.83;;;6.40;;
29026;SDS011;16120;48.608;9.092;2022-11-15T03:38:04;75.40;;;6.33;;
29026;SDS011;16120;48.608;9.092;2022-11-15T03:42:04;76.60;;;7.23;;
29026;SDS011;16120;48.608;9.092;2022-11-15T03:46:04;74.80;;;6.87;;
29026;SDS011;16120;48.608;9.092;2022-11-15T03:50:04;77.77;;;6.70;;
29026;SDS011;16120;48.608;9.092;2022-11-15T03:54:02;76.00;;;6.47;;
29026;SDS011;16120;48.608;9.092;2022-11-15T03:57:58;74.67;;;5.80;;
29026;SDS011;16120;48.608;9.092;2022-11-15T04:01:53;75.40;;;6.20;;
29026;SDS011;16120;48.608;9.092;2022-11-15T04:05:50;76.47;;;6.87;;
29026;SDS011;16120;48.608;9.092;2022-11-15T04:09:45;75.10;;;6.40;;
29026;SDS011;16120;48.608;9.092;2022-11-15T04:13:40;74.65;;;6.57;;
29026;SDS011;16120;48.608;9.092;2022-11-15T04:17:37;74.93;;;6.80;;
29026;SDS011;16120;48.608;9.092;2022-11-15T04:21:33;78.27;;;6.80;;
29026;SDS011;16120;48.608;9.092;2022-11-15T04:25:29;78.30;;;6.33;;
29026;SDS011;16120;48.608;9.092;2022-11-15T04:29:24;75.63;;;6.37;;
29026;SDS011;16120;48.608;9.092;2022-11-15T04:33:19;76.13;;;5.85;;
29026;SDS011;16120;48.608;9.092;2022-11-15T04:37:16;74.90;;;6.00;;
29026;SDS011;16120;48.608;9.092;2022-11-15T04:41:11;74.77;;;6.23;;
29026;SDS011;16120;48.608;9.092;2022-11-15T04:45:06;78.22;;;7.00;;
29026;SDS011;16120;48.608;9.092;2022-11-15T04:49:02;78.97;;;7.13;;
29026;SDS011;16120;48.608;9.092;2022-11-15T04:52:58;78.17;;;7.03;;
29026;SDS011;16120;48.608;9.092;2022-11-15T04:56:54;79.40;;;7.20;;
29026;SDS011;16120;48.608;9.092;2022-11-15T05:00:49;75.60;;;6.57;;
29026;SDS011;16120;48.608;9.092;2022-11-15T05:04:44;77.00;;;7.00;;
29026;SDS011;16120;48.608;9.092;2022-11-15T05:08:41;74.65;;;6.07;;
29026;SDS011;16120;48.608;9.092;2022-11-15T05:12:36;74.43;;;5.70;;
29026;SDS011;16120;48.608;9.092;2022-11-15T05:16:31;76.50;;;6.37;;
29026;SDS011;16120;48.608;9.092;2022-11-15T05:20:26;76.17;;;7.13;;
29026;SDS011;16120;48.608;9.092;2022-11-15T05:24:23;76.17;;;6.70;;
29026;SDS011;16120;48.608;9.092;2022-11-15T05:28:18;76.10;;;6.37;;
29026;SDS011;16120;48.608;9.092;2022-11-15T05:32:13;76.00;;;6.77;;
29026;SDS011;16120;48.608;9.092;2022-11-15T05:36:09;78.03;;;7.05;;
29026;SDS011;16120;48.608;9.092;2022-11-15T05:40:08;76.80;;;7.70;;
29026;SDS011;16120;48.608;9.092;2022-11-15T05:44:04;78.10;;;7.20;;
29026;SDS011;16120;48.608;9.092;2022-11-15T05:48:00;76.40;;;7.10;;
29026;SDS011;16120;48.608;9.092;2022-11-15T05:51:59;76.10;;;7.43;;
29026;SDS011;16120;48.608;9.092;2022-11-15T05:55:56;85.50;;;7.20;;
29026;SDS011;16120;48.608;9.092;2022-11-15T05:59:51;76.63;;;6.60;;
29026;SDS011;16120;48.608;9.092;2022-11-15T06:03:46;76.10;;;6.30;;
29026;SDS011;16120;48.608;9.092;2022-11-15T06:07:42;81.00;;;6.10;;
29026;SDS011;16120;48.608;9.092;2022-11-15T06:11:38;75.13;;;5.85;;
29026;SDS011;16120;48.608;9.092;2022-11-15T06:15:34;78.67;;;6.50;;
29026;SDS011;16120;48.608;9.092;2022-11-15T06:19:29;76.70;;;6.67;;
29026;SDS011;16120;48.608;9.092;2022-11-15T06:23:24;76.07;;;7.15;;
29026;SDS011;16120;48.608;9.092;2022-11-15T06:27:21;79.47;;;8.80;;
29026;SDS011;16120;48.608;9.092;2022-11-15T06:31:16;80.67;;;11.80;;
29026;SDS011;16120;48.608;9.092;2022-11-15T06:35:11;84.32;;;12.07;;
29026;SDS011;16120;48.608;9.092;2022-11-15T06:39:07;85.97;;;12.83;;
29026;SDS011;16120;48.608;9.092;2022-11-15T06:43:03;81.28;;;9.88;;
29026;SDS011;16120;48.608;9.092;2022-11-15T06:46:59;82.20;;;8.67;;
29026;SDS011;16120;48.608;9.092;2022-11-15T06:50:54;81.10;;;9.47;;
29026;SDS011;16120;48.608;9.092;2022-11-15T06:54:50;83.17;;;7.97;;
29026;SDS011;16120;48.608;9.092;2022-11-15T06:58:46;82.43;;;9.50;;
29026;SDS011;16120;48.608;9.092;2022-11-15T07:02:41;83.20;;;9.63;;
29026;SDS011;16120;48.608;9.092;2022-11-15T07:06:37;78.47;;;7.47;;
29026;SDS011;16120;48.608;9.092;2022-11-15T07:10:32;83.15;;;8.55;;
29026;SDS011;16120;48.608;9.092;2022-11-15T07:14:28;78.25;;;8.15;;
29026;SDS011;16120;48.608;9.092;2022-11-15T07:18:24;78.27;;;7.57;;
29026;SDS011;16120;48.608;9.092;2022-11-15T07:22:19;80.35;;;9.45;;
29026;SDS011;16120;48.608;9.092;2022-11-15T07:26:14;81.40;;;10.17;;
29026;SDS011;16120;48.608;9.092;2022-11-15T07:30:12;81.25;;;10.35;;
29026;SDS011;16120;48.608;9.092;2022-11-15T07:34:07;93.67;;;13.67;;
29026;SDS011;16120;48.608;9.092;2022-11-15T07:38:03;82.47;;;10.23;;
29026;SDS011;16120;48.608;9.092;2022-11-15T07:41:58;95.90;;;15.80;;
29026;SDS011;16120;48.608;9.092;2022-11-15T07:45:55;84.80;;;11.00;;
29026;SDS011;16120;48.608;9.092;2022-11-15T07:49:54;83.80;;;12.83;;
29026;SDS011;16120;48.608;9.092;2022-11-15T07:53:49;86.17;;;12.50;;
29026;SDS011;16120;48.608;9.092;2022-11-15T07:57:44;92.13;;;14.90;;
29026;SDS011;16120;48.608;9.092;2022-11-15T08:01:41;85.70;;;13.50;;
29026;SDS011;16120;48.608;9.092;2022-11-15T08:05:37;106.70;;;21.90;;
29026;SDS011;16120;48.608;9.092;2022-11-15T08:09:32;94.10;;;15.77;;
29026;SDS011;16120;48.608;9.092;2022-11-15T08:13:27;108.22;;;20.17;;
29026;SDS011;16120;48.608;9.092;2022-11-15T08:17:24;114.50;;;23.43;;
29026;SDS011;16120;48.608;9.092;2022-11-15T08:21:20;113.37;;;24.50;;
29026;SDS011;16120;48.608;9.092;2022-11-15T08:25:15;93.77;;;17.13;;
29026;SDS011;16120;48.608;9.092;2022-11-15T08:29:11;97.10;;;15.33;;
29026;SDS011;16120;48.608;9.092;2022-11-15T08:33:10;91.37;;;15.37;;
29026;SDS011;16120;48.608;9.092;2022-11-15T08:37:05;92.73;;;15.77;;
29026;SDS011;16120;48.608;9.092;2022-11-15T08:41:01;87.60;;;10.97;;
29026;SDS011;16120;48.608;9.092;2022-11-15T08:44:57;92.40;;;14.57;;
29026;SDS011;16120;48.608;9.092;2022-11-15T08:48:54;92.00;;;15.70;;
29026;SDS011;16120;48.608;9.092;2022-11-15T08:52:49;91.83;;;15.97;;
29026;SDS011;16120;48.608;9.092;2022-11-15T08:56:44;90.87;;;15.90;;
29026;SDS011;16120;48.608;9.092;2022-11-15T09:00:39;85.75;;;12.35;;
29026;SDS011;16120;48.608;9.092;2022-11-15T09:04:36;87.03;;;12.57;;
29026;SDS011;16120;48.608;9.092;2022-11-15T09:08:31;84.03;;;10.13;;
29026;SDS011;16120;48.608;9.092;2022-11-15T09:12:26;83.90;;;9.30;;
29026;SDS011;16120;48.608;9.092;2022-11-15T09:16:21;84.50;;;9.40;;
29026;SDS011;16120;48.608;9.092;2022-11-15T09:20:18;81.78;;;8.85;;
29026;SDS011;16120;48.608;9.092;2022-11-15T09:24:13;82.40;;;8.10;;
29026;SDS011;16120;48.608;9.092;2022-11-15T09:28:08;81.93;;;9.70;;
29026;SDS011;16120;48.608;9.092;2022-11-15T09:32:04;81.10;;;9.17;;
29026;SDS011;16120;48.608;9.092;2022-11-15T09:36:01;84.30;;;13.00;;
29026;SDS011;16120;48.608;9.092;2022-11-15T09:39:56;87.90;;;10.93;;
29026;SDS011;16120;48.608;9.092;2022-11-15T09:43:54;82.23;;;9.60;;
29026;SDS011;16120;48.608;9.092;2022-11-15T09:52:09;80.00;;;9.00;;
29026;SDS011;16120;48.608;9.092;2022-11-15T09:56:12;77.90;;;7.47;;
29026;SDS011;16120;48.608;9.092;2022-11-15T10:00:20;75.70;;;6.07;;
29026;SDS011;16120;48.608;9.092;2022-11-15T10:04:16;77.33;;;6.00;;
29026;SDS011;16120;48.608;9.092;2022-11-15T10:08:25;75.00;;;5.90;;
29026;SDS011;16120;48.608;9.092;2022-11-15T10:12:21;73.07;;;4.73;;
29026;SDS011;16120;48.608;9.092;2022-11-15T10:16:21;73.67;;;4.87;;
29026;SDS011;16120;48.608;9.092;2022-11-15T10:20:22;72.27;;;4.80;;
29026;SDS011;16120;48.608;9.092;2022-11-15T10:24:22;73.70;;;4.80;;
29026;SDS011;16120;48.608;9.092;2022-11-15T10:28:21;76.50;;;4.97;;
29026;SDS011;16120;48.608;9.092;2022-11-15T10:32:18;72.50;;;5.00;;
29026;SDS011;16120;48.608;9.092;2022-11-15T10:36:14;74.90;;;4.70;;
29026;SDS011;16120;48.608;9.092;2022-11-15T10:40:15;76.37;;;5.20;;
29026;SDS011;16120;48.608;9.092;2022-11-15T10:44:22;73.57;;;4.23;;
29026;SDS011;16120;48.608;9.092;2022-11-15T10:48:21;79.20;;;5.40;;
29026;SDS011;16120;48.608;9.092;2022-11-15T10:52:17;80.53;;;4.90;;
29026;SDS011;16120;48.608;9.092;2022-11-15T10:56:15;80.37;;;6.23;;
29026;SDS011;16120;48.608;9.092;2022-11-15T11:00:26;73.03;;;4.50;;
29026;SDS011;16120;48.608;9.092;2022-11-15T11:04:21;74.00;;;4.77;;
29026;SDS011;16120;48.608;9.092;2022-11-15T11:08:20;74.17;;;4.60;;
29026;SDS011;16120;48.608;9.092;2022-11-15T11:12:18;73.93;;;4.00;;
29026;SDS011;16120;48.608;9.092;2022-11-15T11:16:26;73.00;;;4.30;;
29026;SDS011;16120;48.608;9.092;2022-11-15T11:20:25;74.13;;;4.57;;
29026;SDS011;16120;48.608;9.092;2022-11-15T11:24:25;74.70;;;4.40;;
29026;SDS011;16120;48.608;9.092;2022-11-15T11:28:29;75.23;;;4.00;;
29026;SDS011;16120;48.608;9.092;2022-11-15T11:32:30;72.87;;;4.20;;
29026;SDS011;16120;48.608;9.092;2022-11-15T11:36:32;74.27;;;4.40;;
29026;SDS011;16120;48.608;9.092;2022-11-15T11:40:30;74.33;;;4.57;;
29026;SDS011;16120;48.608;9.092;2022-11-15T11:44:30;72.37;;;4.20;;
29026;SDS011;16120;48.608;9.092;2022-11-15T11:48:32;81.60;;;4.50;;
29026;SDS011;16120;48.608;9.092;2022-11-15T11:52:33;72.47;;;3.80;;
29026;SDS011;16120;48.608;9.092;2022-11-15T11:56:31;74.10;;;4.00;;
29026;SDS011;16120;48.608;9.092;2022-11-15T12:00:28;76.70;;;4.40;;
29026;SDS011;16120;48.608;9.092;2022-11-15T12:04:26;74.77;;;3.93;;
29026;SDS011;16120;48.608;9.092;2022-11-15T12:08:26;74.00;;;4.17;;
29026;SDS011;16120;48.608;9.092;2022-11-15T12:12:24;72.57;;;4.10;;
29026;SDS011;16120;48.608;9.092;2022-11-15T12:16:21;74.87;;;4.90;;
29026;SDS011;16120;48.608;9.092;2022-11-15T12:20:19;74.27;;;4.33;;
29026;SDS011;16120;48.608;9.092;2022-11-15T12:24:16;73.37;;;4.10;;
29026;SDS011;16120;48.608;9.092;2022-11-15T12:28:13;74.00;;;4.17;;
29026;SDS011;16120;48.608;9.092;2022-11-15T12:32:16;74.00;;;4.37;;
29026;SDS011;16120;48.608;9.092;2022-11-15T12:36:30;72.20;;;4.20;;
29026;SDS011;16120;48.608;9.092;2022-11-15T12:40:26;77.10;;;4.70;;
29026;SDS011;16120;48.608;9.092;2022-11-15T12:48:50;73.07;;;4.53;;
29026;SDS011;16120;48.608;9.092;2022-11-15T13:01:06;76.30;;;4.27;;
29026;SDS011;16120;48.608;9.092;2022-11-15T13:13:43;71.57;;;4.00;;
29026;SDS011;16120;48.608;9.092;2022-11-15T13:17:38;74.27;;;4.83;;
29026;SDS011;16120;48.608;9.092;2022-11-15T13:21:34;73.40;;;4.50;;
29026;SDS011;16120;48.608;9.092;2022-11-15T13:25:43;79.63;;;4.63;;
29026;SDS011;16120;48.608;9.092;2022-11-15T13:29:43;72.30;;;4.10;;
29026;SDS011;16120;48.608;9.092;2022-11-15T13:33:39;77.03;;;4.43;;
29026;SDS011;16120;48.608;9.092;2022-11-15T13:37:34;74.17;;;4.63;;
29026;SDS011;16120;48.608;9.092;2022-11-15T13:41:30;76.88;;;5.20;;
29026;SDS011;16120;48.608;9.092;2022-11-15T13:45:27;80.07;;;5.20;;
29026;SDS011;16120;48.608;9.092;2022-11-15T13:49:22;80.83;;;5.07;;
29026;SDS011;16120;48.608;9.092;2022-11-15T13:53:23;72.50;;;5.07;;
29026;SDS011;16120;48.608;9.092;2022-11-15T13:57:20;76.97;;;5.20;;
29026;SDS011;16120;48.608;9.092;2022-11-15T14:01:18;74.77;;;5.03;;
29026;SDS011;16120;48.608;9.092;2022-11-15T14:05:15;74.60;;;5.50;;
29026;SDS011;16120;48.608;9.092;2022-11-15T14:09:16;77.33;;;5.60;;
29026;SDS011;16120;48.608;9.092;2022-11-15T14:13:26;75.20;;;5.57;;
29026;SDS011;16120;48.608;9.092;2022-11-15T14:17:34;78.77;;;5.10;;
29026;SDS011;16120;48.608;9.092;2022-11-15T14:21:29;77.47;;;5.10;;
29026;SDS011;16120;48.608;9.092;2022-11-15T14:25:25;77.10;;;5.60;;
29026;SDS011;16120;48.608;9.092;2022-11-15T14:29:24;73.80;;;4.90;;
29026;SDS011;16120;48.608;9.092;2022-11-15T14:33:23;80.63;;;8.40;;
29026;SDS011;16120;48.608;9.092;2022-11-15T14:37:19;78.50;;;8.37;;
29026;SDS011;16120;48.608;9.092;2022-11-15T14:41:18;78.63;;;7.00;;
29026;SDS011;16120;48.608;9.092;2022-11-15T14:45:15;76.60;;;5.93;;
29026;SDS011;16120;48.608;9.092;2022-11-15T14:49:12;72.17;;;4.67;;
29026;SDS011;16120;48.608;9.092;2022-11-15T14:53:10;73.87;;;5.00;;
29026;SDS011;16120;48.608;9.092;2022-11-15T14:57:06;73.20;;;5.03;;
29026;SDS011;16120;48.608;9.092;2022-11-15T15:01:02;74.70;;;5.75;;
29026;SDS011;16120;48.608;9.092;2022-11-15T15:04:59;92.60;;;14.57;;
29026;SDS011;16120;48.608;9.092;2022-11-15T15:08:54;87.60;;;13.60;;
29026;SDS011;16120;48.608;9.092;2022-11-15T15:12:49;80.10;;;9.40;;
29026;SDS011;16120;48.608;9.092;2022-11-15T15:16:44;96.40;;;18.33;;
29026;SDS011;16120;48.608;9.092;2022-11-15T15:20:41;81.65;;;9.18;;
29026;SDS011;16120;48.608;9.092;2022-11-15T15:24:37;81.90;;;9.90;;
29026;SDS011;16120;48.608;9.092;2022-11-15T15:28:32;84.70;;;10.73;;
29026;SDS011;16120;48.608;9.092;2022-11-15T15:32:27;81.30;;;8.60;;
29026;SDS011;16120;48.608;9.092;2022-11-15T15:36:24;79.20;;;7.57;;
29026;SDS011;16120;48.608;9.092;2022-11-15T15:40:19;78.17;;;8.43;;
29026;SDS011;16120;48.608;9.092;2022-11-15T15:44:15;78.37;;;9.00;;
29026;SDS011;16120;48.608;9.092;2022-11-15T15:48:10;80.27;;;7.90;;
29026;SDS011;16120;48.608;9.092;2022-11-15T15:52:07;83.70;;;11.93;;
29026;SDS011;16120;48.608;9.092;2022-11-15T15:56:02;93.97;;;16.47;;
29026;SDS011;16120;48.608;9.092;2022-11-15T15:59:58;78.67;;;9.37;;
29026;SDS011;16120;48.608;9.092;2022-11-15T16:03:53;83.93;;;11.43;;
29026;SDS011;16120;48.608;9.092;2022-11-15T16:07:49;97.57;;;22.07;;
29026;SDS011;16120;48.608;9.092;2022-11-15T16:11:45;85.30;;;12.80;;
29026;SDS011;16120;48.608;9.092;2022-11-15T16:15:40;81.37;;;10.20;;
29026;SDS011;16120;48.608;9.092;2022-11-15T16:19:36;86.00;;;14.23;;
29026;SDS011;16120;48.608;9.092;2022-11-15T16:23:33;82.60;;;8.23;;
29026;SDS011;16120;48.608;9.092;2022-11-15T16:27:28;84.80;;;12.63;;
29026;SDS011;16120;48.608;9.092;2022-11-15T16:31:23;81.97;;;10.60;;
29026;SDS011;16120;48.608;9.092;2022-11-15T16:35:19;88.55;;;12.52;;
29026;SDS011;16120;48.608;9.092;2022-11-15T16:39:16;81.70;;;10.50;;
29026;SDS011;16120;48.608;9.092;2022-11-15T16:43:11;80.80;;;8.37;;
29026;SDS011;16120;48.608;9.092;2022-11-15T16:47:10;84.63;;;11.10;;
29026;SDS011;16120;48.608;9.092;2022-11-15T16:51:07;83.77;;;10.20;;
29026;SDS011;16120;48.608;9.092;2022-11-15T16:55:04;84.37;;;10.07;;
29026;SDS011;16120;48.608;9.092;2022-11-15T16:58:59;81.43;;;9.80;;
29026;SDS011;16120;48.608;9.092;2022-11-15T17:02:55;80.57;;;10.23;;
29026;SDS011;16120;48.608;9.092;2022-11-15T17:06:51;80.50;;;10.33;;
29026;SDS011;16120;48.608;9.092;2022-11-15T17:10:48;85.28;;;10.18;;
29026;SDS011;16120;48.608;9.092;2022-11-15T17:14:43;81.80;;;10.93;;
29026;SDS011;16120;48.608;9.092;2022-11-15T17:18:39;87.27;;;11.70;;
29026;SDS011;16120;48.608;9.092;2022-11-15T17:22:34;91.03;;;12.00;;
29026;SDS011;16120;48.608;9.092;2022-11-15T17:26:31;85.97;;;10.20;;
29026;SDS011;16120;48.608;9.092;2022-11-15T17:30:26;82.43;;;11.27;;
29026;SDS011;16120;48.608;9.092;2022-11-15T17:34:21;83.90;;;10.77;;
29026;SDS011;16120;48.608;9.092;2022-11-15T17:38:17;82.83;;;10.73;;
29026;SDS011;16120;48.608;9.092;2022-11-15T17:42:13;87.90;;;9.82;;
29026;SDS011;16120;48.608;9.092;2022-11-15T17:46:10;85.10;;;9.87;;
29026;SDS011;16120;48.608;9.092;2022-11-15T17:50:05;82.33;;;10.23;;
29026;SDS011;16120;48.608;9.092;2022-11-15T17:54:01;79.70;;;9.37;;
29026;SDS011;16120;48.608;9.092;2022-11-15T17:57:57;82.50;;;9.20;;
29026;SDS011;16120;48.608;9.092;2022-11-15T18:01:52;80.37;;;9.40;;
29026;SDS011;16120;48.608;9.092;2022-11-15T18:05:48;81.50;;;9.60;;
29026;SDS011;16120;48.608;9.092;2022-11-15T18:09:43;79.23;;;8.00;;
29026;SDS011;16120;48.608;9.092;2022-11-15T18:13:40;79.60;;;8.80;;
29026;SDS011;16120;48.608;9.092;2022-11-15T18:17:35;81.63;;;9.03;;
29026;SDS011;16120;48.608;9.092;2022-11-15T18:21:31;82.23;;;8.23;;
29026;SDS011;16120;48.608;9.092;2022-11-15T18:25:26;84.03;;;8.30;;
29026;SDS011;16120;48.608;9.092;2022-11-15T18:29:22;79.87;;;8.07;;
29026;SDS011;16120;48.608;9.092;2022-11-15T18:33:18;82.47;;;8.43;;
29026;SDS011;16120;48.608;9.092;2022-11-15T18:37:13;76.87;;;7.07;;
29026;SDS011;16120;48.608;9.092;2022-11-15T18:41:09;77.30;;;7.33;;
29026;SDS011;16120;48.608;9.092;2022-11-15T18:45:06;87.67;;;8.77;;
29026;SDS011;16120;48.608;9.092;2022-11-15T18:49:01;76.63;;;7.40;;
29026;SDS011;16120;48.608;9.092;2022-11-15T18:52:56;80.85;;;8.38;;
29026;SDS011;16120;48.608;9.092;2022-11-15T18:56:52;126.00;;;33.40;;
29026;SDS011;16120;48.608;9.092;2022-11-15T19:00:48;97.57;;;22.00;;
29026;SDS011;16120;48.608;9.092;2022-11-15T19:04:43;113.90;;;27.10;;
29026;SDS011;16120;48.608;9.092;2022-11-15T19:08:39;122.80;;;36.17;;
29026;SDS011;16120;48.608;9.092;2022-11-15T19:12:34;104.93;;;24.13;;
29026;SDS011;16120;48.608;9.092;2022-11-15T19:16:32;120.77;;;35.63;;
29026;SDS011;16120;48.608;9.092;2022-11-15T19:20:28;113.43;;;29.00;;
29026;SDS011;16120;48.608;9.092;2022-11-15T19:24:23;102.07;;;20.20;;
29026;SDS011;16120;48.608;9.092;2022-11-15T19:28:19;102.80;;;20.80;;
29026;SDS011;16120;48.608;9.092;2022-11-15T19:32:16;96.23;;;18.20;;
29026;SDS011;16120;48.608;9.092;2022-11-15T19:36:12;117.27;;;29.20;;
29026;SDS011;16120;48.608;9.092;2022-11-15T19:40:08;136.63;;;40.17;;
29026;SDS011;16120;48.608;9.092;2022-11-15T19:44:04;110.97;;;29.13;;
29026;SDS011;16120;48.608;9.092;2022-11-15T19:48:01;113.20;;;31.33;;
29026;SDS011;16120;48.608;9.092;2022-11-15T19:51:56;93.70;;;16.97;;
29026;SDS011;16120;48.608;9.092;2022-11-15T19:55:54;88.20;;;13.80;;
29026;SDS011;16120;48.608;9.092;2022-11-15T19:59:49;85.83;;;12.20;;
29026;SDS011;16120;48.608;9.092;2022-11-15T20:03:46;86.00;;;13.83;;
29026;SDS011;16120;48.608;9.092;2022-11-15T20:07:41;89.43;;;15.17;;
29026;SDS011;16120;48.608;9.092;2022-11-15T20:11:36;84.03;;;12.23;;
29026;SDS011;16120;48.608;9.092;2022-11-15T20:15:32;89.80;;;11.10;;
29026;SDS011;16120;48.608;9.092;2022-11-15T20:19:28;88.80;;;10.73;;
29026;SDS011;16120;48.608;9.092;2022-11-15T20:23:23;82.60;;;10.93;;
29026;SDS011;16120;48.608;9.092;2022-11-15T20:27:19;81.68;;;9.77;;
29026;SDS011;16120;48.608;9.092;2022-11-15T20:31:14;81.50;;;10.43;;
29026;SDS011;16120;48.608;9.092;2022-11-15T20:35:11;81.40;;;9.60;;
29026;SDS011;16120;48.608;9.092;2022-11-15T20:39:06;80.63;;;8.53;;
29026;SDS011;16120;48.608;9.092;2022-11-15T20:43:01;82.10;;;7.90;;
29026;SDS011;16120;48.608;9.092;2022-11-15T20:46:57;79.10;;;8.30;;
29026;SDS011;16120;48.608;9.092;2022-11-15T20:51:01;81.10;;;8.23;;
29026;SDS011;16120;48.608;9.092;2022-11-15T20:54:57;78.43;;;7.63;;
29026;SDS011;16120;48.608;9.092;2022-11-15T20:58:52;78.70;;;7.60;;
29026;SDS011;16120;48.608;9.092;2022-11-15T21:02:47;78.17;;;6.77;;
29026;SDS011;16120;48.608;9.092;2022-11-15T21:06:44;81.07;;;7.10;;
29026;SDS011;16120;48.608;9.092;2022-11-15T21:10:39;77.17;;;7.20;;
29026;SDS011;16120;48.608;9.092;2022-11-15T21:14:34;76.85;;;7.55;;
29026;SDS011;16120;48.608;9.092;2022-11-15T21:18:30;78.82;;;8.93;;
29026;SDS011;16120;48.608;9.092;2022-11-15T21:22:27;82.67;;;9.30;;
29026;SDS011;16120;48.608;9.092;2022-11-15T21:26:24;83.47;;;10.87;;
29026;SDS011;16120;48.608;9.092;2022-11-15T21:30:19;81.53;;;8.70;;
29026;SDS011;16120;48.608;9.092;2022-11-15T21:34:15;76.07;;;6.93;;
29026;SDS011;16120;48.608;9.092;2022-11-15T21:38:11;80.80;;;6.43;;
29026;SDS011;16120;48.608;9.092;2022-11-15T21:42:07;78.77;;;6.20;;
29026;SDS011;16120;48.608;9.092;2022-11-15T21:46:03;80.80;;;5.93;;
29026;SDS011;16120;48.608;9.092;2022-11-15T21:49:58;74.17;;;5.43;;
29026;SDS011;16120;48.608;9.092;2022-11-15T21:53:56;77.53;;;6.97;;
29026;SDS011;16120;48.608;9.092;2022-11-15T21:57:51;80.37;;;7.00;;
29026;SDS011;16120;48.608;9.092;2022-11-15T22:01:46;81.53;;;6.57;;
29026;SDS011;16120;48.608;9.092;2022-11-15T22:05:42;79.63;;;7.00;;
29026;SDS011;16120;48.608;9.092;2022-11-15T22:09:39;75.10;;;5.53;;
29026;SDS011;16120;48.608;9.092;2022-11-15T22:13:34;76.23;;;6.03;;
29026;SDS011;16120;48.608;9.092;2022-11-15T22:17:29;76.97;;;5.85;;
29026;SDS011;16120;48.608;9.092;2022-11-15T22:21:25;76.60;;;6.00;;
29026;SDS011;16120;48.608;9.092;2022-11-15T22:25:22;75.87;;;5.27;;
29026;SDS011;16120;48.608;9.092;2022-11-15T22:29:17;75.67;;;6.07;;
29026;SDS011;16120;48.608;9.092;2022-11-15T22:33:14;76.00;;;5.67;;
29026;SDS011;16120;48.608;9.092;2022-11-15T22:37:10;78.03;;;5.33;;
29026;SDS011;16120;48.608;9.092;2022-11-15T22:45:12;77.17;;;5.70;;
29026;SDS011;16120;48.608;9.092;2022-11-15T22:49:08;75.27;;;5.83;;
29026;SDS011;16120;48.608;9.092;2022-11-15T22:53:03;77.07;;;5.63;;
29026;SDS011;16120;48.608;9.092;2022-11-15T22:56:58;76.40;;;5.90;;
29026;SDS011;16120;48.608;9.092;2022-11-15T23:00:56;82.57;;;7.13;;
29026;SDS011;16120;48.608;9.092;2022-11-15T23:04:51;77.57;;;6.77;;
29026;SDS011;16120;48.608;9.092;2022-11-15T23:08:46;75.93;;;6.10;;
29026;SDS011;16120;48.608;9.092;2022-11-15T23:12:42;75.15;;;5.93;;
29026;SDS011;16120;48.608;9.092;2022-11-15T23:16:38;78.70;;;7.35;;
29026;SDS011;16120;48.608;9.092;2022-11-15T23:20:33;80.23;;;7.37;;
29026;SDS011;16120;48.608;9.092;2022-11-15T23:24:29;78.95;;;8.02;;
29026;SDS011;16120;48.608;9.092;2022-11-15T23:28:24;80.20;;;9.30;;
29026;SDS011;16120;48.608;9.092;2022-11-15T23:32:21;77.38;;;7.78;;
29026;SDS011;16120;48.608;9.092;2022-11-15T23:36:16;80.97;;;8.60;;
29026;SDS011;16120;48.608;9.092;2022-11-15T23:40:11;84.93;;;8.80;;
29026;SDS011;16120;48.608;9.092;2022-11-15T23:44:06;81.67;;;8.47;;
29026;SDS011;16120;48.608;9.092;2022-11-15T23:48:03;78.68;;;7.57;;